Time,TemperatureF,DewpointF,PressureIn,WindDirection,WindDirectionDegrees,WindSpeedMPH,WindSpeedGustMPH,Humidity,HourlyPrecipIn,Conditions,Clouds,dailyrainin,SoftwareType,DateUTC
2013-11-23 00:01:00,43.5,32.9,29.91,WSW,246,0.0,0.0,66,0.00,,---,0.00,VWS V14.01,2013-11-23 08:01:00,
2013-11-23 00:06:00,43.5,33.7,29.91,WSW,246,0.0,0.0,68,0.00,,---,0.00,VWS V14.01,2013-11-23 08:06:00,
2013-11-23 00:11:00,43.5,33.7,29.91,WSW,246,0.0,0.0,68,0.00,,---,0.00,VWS V14.01,2013-11-23 08:11:00,
2013-11-23 00:16:00,43.5,33.3,29.91,WSW,246,0.0,0.0,67,0.00,,---,0.00,VWS V14.01,2013-11-23 08:16:00,
2013-11-23 00:21:00,43.5,33.3,29.92,WSW,246,0.0,0.0,67,0.00,,---,0.00,VWS V14.01,2013-11-23 08:21:00,
2013-11-23 00:26:00,43.6,33.0,29.92,WSW,246,0.0,0.0,66,0.00,,---,0.00,VWS V14.01,2013-11-23 08:26:00,
2013-11-23 00:31:00,43.8,33.2,29.92,WSW,246,0.0,0.0,66,0.00,,---,0.00,VWS V14.01,2013-11-23 08:31:00,
2013-11-23 00:36:00,43.8,33.2,29.91,WSW,246,0.0,0.0,66,0.00,,---,0.00,VWS V14.01,2013-11-23 08:36:00,
2013-11-23 00:42:00,44.1,33.1,29.91,WSW,246,0.0,0.0,65,0.00,,---,0.00,VWS V14.01,2013-11-23 08:42:00,
2013-11-23 00:47:00,44.2,33.2,29.92,WSW,246,0.0,0.0,65,0.00,,---,0.00,VWS V14.01,2013-11-23 08:47:00,
2013-11-23 00:52:00,44.3,33.3,29.92,WSW,246,0.0,0.0,65,0.00,,---,0.00,VWS V14.01,2013-11-23 08:52:00,
2013-11-23 00:57:00,44.6,34.0,29.92,WSW,246,0.0,0.0,66,0.00,,---,0.00,VWS V14.01,2013-11-23 08:57:00,
2013-11-23 01:02:00,44.5,34.6,29.92,WSW,246,0.0,0.0,68,0.00,,---,0.00,VWS V14.01,2013-11-23 09:02:00,
2013-11-23 01:07:00,44.3,34.4,29.92,SE,126,0.0,1.0,68,0.00,,---,0.00,VWS V14.01,2013-11-23 09:07:00,
2013-11-23 01:12:00,44.5,35.0,29.92,ENE,78,0.0,1.0,69,0.00,,---,0.00,VWS V14.01,2013-11-23 09:12:00,
2013-11-23 01:17:00,44.3,34.8,29.93,ENE,78,0.0,1.0,69,0.00,,---,0.00,VWS V14.01,2013-11-23 09:17:00,
2013-11-23 01:22:00,44.5,35.0,29.93,ENE,78,0.0,1.0,69,0.00,,---,0.00,VWS V14.01,2013-11-23 09:22:00,
2013-11-23 01:27:00,44.6,35.1,29.93,ENE,78,0.0,1.0,69,0.00,,---,0.00,VWS V14.01,2013-11-23 09:27:00,
2013-11-23 01:32:00,44.6,35.1,29.93,ENE,78,0.0,1.0,69,0.00,,---,0.00,VWS V14.01,2013-11-23 09:32:00,
2013-11-23 01:37:00,44.6,35.1,29.93,ENE,78,0.0,0.0,69,0.00,,---,0.00,VWS V14.01,2013-11-23 09:37:00,
2013-11-23 01:43:00,44.9,35.4,29.93,ENE,78,0.0,0.0,69,0.00,,---,0.00,VWS V14.01,2013-11-23 09:43:00,
2013-11-23 01:48:00,44.9,35.4,29.93,ENE,78,0.0,0.0,69,0.00,,---,0.00,VWS V14.01,2013-11-23 09:48:00,
2013-11-23 01:53:00,45.2,35.7,29.93,ENE,78,0.0,1.0,69,0.00,,---,0.00,VWS V14.01,2013-11-23 09:53:00,
2013-11-23 01:58:00,45.2,35.7,29.93,ENE,78,0.0,1.0,69,0.00,,---,0.00,VWS V14.01,2013-11-23 09:58:00,
2013-11-23 02:03:00,45.2,35.7,29.93,ENE,78,0.0,0.0,69,0.00,,---,0.00,VWS V14.01,2013-11-23 10:03:00,
2013-11-23 02:08:00,45.1,35.5,29.93,ENE,78,0.0,0.0,69,0.00,,---,0.00,VWS V14.01,2013-11-23 10:08:00,
2013-11-23 02:13:00,44.9,35.4,29.93,ENE,78,0.0,0.0,69,0.00,,---,0.00,VWS V14.01,2013-11-23 10:13:00,
2013-11-23 02:18:00,44.8,35.3,29.93,ENE,78,0.0,0.0,69,0.00,,---,0.00,VWS V14.01,2013-11-23 10:18:00,
2013-11-23 02:23:00,44.5,35.3,29.93,ENE,78,0.0,0.0,70,0.00,,---,0.00,VWS V14.01,2013-11-23 10:23:00,
2013-11-23 02:28:00,44.2,35.4,29.93,ENE,78,0.0,0.0,71,0.00,,---,0.00,VWS V14.01,2013-11-23 10:28:00,
2013-11-23 02:33:00,44.1,35.0,29.93,ENE,78,0.0,0.0,70,0.00,,---,0.00,VWS V14.01,2013-11-23 10:33:00,
2013-11-23 02:39:00,43.8,35.4,29.93,ENE,78,0.0,0.0,72,0.00,,---,0.00,VWS V14.01,2013-11-23 10:39:00,
2013-11-23 02:44:00,43.6,35.2,29.93,ENE,78,0.0,0.0,72,0.00,,---,0.00,VWS V14.01,2013-11-23 10:44:00,
2013-11-23 02:49:00,43.6,35.2,29.92,ENE,78,0.0,0.0,72,0.00,,---,0.00,VWS V14.01,2013-11-23 10:49:00,
2013-11-23 02:54:00,43.5,35.1,29.92,ENE,78,0.0,0.0,72,0.00,,---,0.00,VWS V14.01,2013-11-23 10:54:00,
2013-11-23 02:59:00,43.3,35.2,29.92,ENE,78,0.0,0.0,73,0.00,,---,0.00,VWS V14.01,2013-11-23 10:59:00,
2013-11-23 03:04:00,43.3,35.2,29.92,ENE,78,0.0,0.0,73,0.00,,---,0.00,VWS V14.01,2013-11-23 11:04:00,
2013-11-23 03:09:00,43.2,35.5,29.92,ENE,78,0.0,0.0,74,0.00,,---,0.00,VWS V14.01,2013-11-23 11:09:00,
2013-11-23 03:14:00,43.1,35.4,29.92,ENE,78,0.0,0.0,74,0.00,,---,0.00,VWS V14.01,2013-11-23 11:14:00,
2013-11-23 03:19:00,43.1,35.7,29.92,ENE,78,0.0,0.0,75,0.00,,---,0.00,VWS V14.01,2013-11-23 11:19:00,
2013-11-23 03:24:00,42.9,35.5,29.92,ENE,78,0.0,0.0,75,0.00,,---,0.00,VWS V14.01,2013-11-23 11:24:00,
2013-11-23 03:29:00,43.1,35.7,29.92,ENE,78,0.0,1.0,75,0.00,,---,0.00,VWS V14.01,2013-11-23 11:29:00,
2013-11-23 03:34:00,43.3,35.9,29.93,ENE,78,0.0,0.0,75,0.00,,---,0.00,VWS V14.01,2013-11-23 11:34:00,
2013-11-23 03:40:00,43.5,35.8,29.93,ENE,78,0.0,0.0,74,0.00,,---,0.00,VWS V14.01,2013-11-23 11:40:00,
2013-11-23 03:45:00,43.6,35.9,29.93,ENE,78,0.0,0.0,74,0.00,,---,0.00,VWS V14.01,2013-11-23 11:45:00,
2013-11-23 03:50:00,43.8,35.7,29.93,ENE,78,0.0,0.0,73,0.00,,---,0.00,VWS V14.01,2013-11-23 11:50:00,
2013-11-23 03:55:00,43.9,35.5,29.93,ENE,78,0.0,0.0,72,0.00,,---,0.00,VWS V14.01,2013-11-23 11:55:00,
2013-11-23 04:00:00,43.9,35.5,29.93,ENE,78,0.0,0.0,72,0.00,,---,0.00,VWS V14.01,2013-11-23 12:00:00,
2013-11-23 04:05:00,43.9,35.1,29.93,ENE,78,0.0,0.0,71,0.00,,---,0.00,VWS V14.01,2013-11-23 12:05:00,
2013-11-23 04:10:00,43.9,35.1,29.93,ENE,78,0.0,0.0,71,0.00,,---,0.00,VWS V14.01,2013-11-23 12:10:00,
2013-11-23 04:15:00,43.9,35.1,29.93,East,84,0.0,4.0,71,0.00,,---,0.00,VWS V14.01,2013-11-23 12:15:00,
2013-11-23 04:20:00,44.2,35.4,29.92,East,84,0.0,4.0,71,0.00,,---,0.00,VWS V14.01,2013-11-23 12:20:00,
2013-11-23 04:25:00,44.2,35.4,29.92,East,84,0.0,4.0,71,0.00,,---,0.00,VWS V14.01,2013-11-23 12:25:00,
2013-11-23 04:30:00,43.9,35.8,29.92,East,84,0.0,4.0,73,0.00,,---,0.00,VWS V14.01,2013-11-23 12:30:00,
2013-11-23 04:36:00,43.6,35.5,29.92,East,84,0.0,0.0,73,0.00,,---,0.00,VWS V14.01,2013-11-23 12:36:00,
2013-11-23 04:41:00,43.5,35.8,29.92,East,84,0.0,0.0,74,0.00,,---,0.00,VWS V14.01,2013-11-23 12:41:00,
2013-11-23 04:46:00,43.3,35.6,29.92,East,84,0.0,0.0,74,0.00,,---,0.00,VWS V14.01,2013-11-23 12:46:00,
2013-11-23 04:51:00,43.2,35.5,29.93,East,84,0.0,0.0,74,0.00,,---,0.00,VWS V14.01,2013-11-23 12:51:00,
2013-11-23 04:56:00,43.1,35.7,29.93,East,84,0.0,0.0,75,0.00,,---,0.00,VWS V14.01,2013-11-23 12:56:00,
2013-11-23 05:01:00,42.6,35.2,29.93,East,85,0.0,0.0,75,0.00,,---,0.00,VWS V14.01,2013-11-23 13:01:00,
2013-11-23 05:06:00,42.6,35.0,29.93,East,86,0.0,-999.0,75,-99.99,,,0.00,weatherlink.com 1.10,2013-11-23 13:06:00,
2013-11-23 05:11:00,42.6,35.2,29.93,East,86,0.0,0.0,75,0.00,,---,0.00,VWS V14.01,2013-11-23 13:11:00,
2013-11-23 05:16:00,42.6,35.2,29.93,East,86,0.0,0.0,75,0.00,,---,0.00,VWS V14.01,2013-11-23 13:16:00,
2013-11-23 05:21:00,43.6,35.2,29.94,East,85,0.0,4.0,72,0.00,,---,0.00,VWS V14.01,2013-11-23 13:21:00,
2013-11-23 05:26:00,44.9,35.0,29.94,East,80,0.0,5.0,68,0.00,,---,0.00,VWS V14.01,2013-11-23 13:26:00,
2013-11-23 05:31:00,46.0,34.5,29.94,ENE,66,3.0,6.0,64,0.00,,---,0.00,VWS V14.01,2013-11-23 13:31:00,
2013-11-23 05:36:00,46.8,34.5,29.94,ENE,69,0.0,0.0,62,0.00,,---,0.00,VWS V14.01,2013-11-23 13:36:00,
2013-11-23 05:41:00,47.1,34.4,29.94,ENE,71,3.0,4.0,61,0.00,,---,0.00,VWS V14.01,2013-11-23 13:41:00,
2013-11-23 05:47:00,47.4,34.6,29.95,NE,55,0.0,6.0,61,0.00,,---,0.00,VWS V14.01,2013-11-23 13:47:00,
2013-11-23 05:52:00,47.7,34.5,29.95,NE,54,3.0,6.0,60,0.00,,---,0.00,VWS V14.01,2013-11-23 13:52:00,
2013-11-23 05:57:00,47.7,34.5,29.95,NE,42,0.0,6.0,60,0.00,,---,0.00,VWS V14.01,2013-11-23 13:57:00,
2013-11-23 06:02:00,47.1,34.8,29.96,NE,42,0.0,6.0,62,0.00,,---,0.00,VWS V14.01,2013-11-23 14:02:00,
2013-11-23 06:07:00,46.7,34.8,29.96,NE,42,0.0,0.0,63,0.00,,---,0.00,VWS V14.01,2013-11-23 14:07:00,
2013-11-23 06:12:00,46.4,34.9,29.96,East,83,0.0,0.0,64,0.00,,---,0.00,VWS V14.01,2013-11-23 14:12:00,
2013-11-23 06:17:00,46.5,35.4,29.96,East,84,0.0,0.0,65,0.00,,---,0.00,VWS V14.01,2013-11-23 14:17:00,
2013-11-23 06:22:00,46.7,35.6,29.96,ESE,113,0.0,5.0,65,0.00,,---,0.00,VWS V14.01,2013-11-23 14:22:00,
2013-11-23 06:27:00,46.7,35.6,29.96,ESE,113,0.0,5.0,65,0.00,,---,0.00,VWS V14.01,2013-11-23 14:27:00,
2013-11-23 06:32:00,46.7,35.6,29.96,SE,132,0.0,5.0,65,0.00,,---,0.00,VWS V14.01,2013-11-23 14:32:00,
2013-11-23 06:37:00,46.4,35.7,29.96,SE,134,0.0,0.0,66,0.00,,---,0.00,VWS V14.01,2013-11-23 14:37:00,
2013-11-23 06:42:00,45.4,35.8,29.96,SSE,151,0.0,0.0,69,0.00,,---,0.00,VWS V14.01,2013-11-23 14:42:00,
2013-11-23 06:48:00,44.2,35.0,29.97,SSE,151,0.0,0.0,70,0.00,,---,0.00,VWS V14.01,2013-11-23 14:48:00,
2013-11-23 06:53:00,43.8,35.0,29.97,SSE,151,0.0,0.0,71,0.00,,---,0.00,VWS V14.01,2013-11-23 14:53:00,
2013-11-23 06:58:00,43.3,34.5,29.97,SSE,151,0.0,0.0,71,0.00,,---,0.00,VWS V14.01,2013-11-23 14:58:00,
2013-11-23 07:03:00,43.1,34.7,29.98,SSE,151,0.0,0.0,72,0.00,,---,0.00,VWS V14.01,2013-11-23 15:03:00,
2013-11-23 07:08:00,42.8,34.8,29.98,SSE,151,0.0,0.0,73,0.00,,---,0.00,VWS V14.01,2013-11-23 15:08:00,
2013-11-23 07:13:00,42.3,34.6,29.98,SSE,151,0.0,0.0,74,0.00,,---,0.00,VWS V14.01,2013-11-23 15:13:00,
2013-11-23 07:18:00,42.2,34.9,29.98,SSE,151,0.0,0.0,75,0.00,,---,0.00,VWS V14.01,2013-11-23 15:18:00,
2013-11-23 07:23:00,42.1,34.8,29.98,SSE,151,0.0,0.0,75,0.00,,---,0.00,VWS V14.01,2013-11-23 15:23:00,
2013-11-23 07:28:00,41.9,34.9,29.98,SSE,151,0.0,0.0,76,0.00,,---,0.00,VWS V14.01,2013-11-23 15:28:00,
2013-11-23 07:33:00,41.9,34.9,29.98,SSE,151,0.0,0.0,76,0.00,,---,0.00,VWS V14.01,2013-11-23 15:33:00,
2013-11-23 07:38:00,41.9,34.9,29.98,SSE,151,0.0,0.0,76,0.00,,---,0.00,VWS V14.01,2013-11-23 15:38:00,
2013-11-23 07:43:00,41.9,35.2,29.98,SSE,151,0.0,0.0,77,0.00,,---,0.00,VWS V14.01,2013-11-23 15:43:00,
2013-11-23 07:49:00,42.1,35.4,29.99,SSE,151,0.0,0.0,77,0.00,,---,0.00,VWS V14.01,2013-11-23 15:49:00,
2013-11-23 07:54:00,42.2,35.2,29.99,East,83,0.0,3.0,76,0.00,,---,0.00,VWS V14.01,2013-11-23 15:54:00,
2013-11-23 07:59:00,43.2,35.8,29.99,East,97,1.0,6.0,75,0.00,,---,0.00,VWS V14.01,2013-11-23 15:59:00,
2013-11-23 08:04:00,45.2,36.0,29.99,NE,51,0.0,2.0,70,0.00,,---,0.00,VWS V14.01,2013-11-23 16:04:00,
2013-11-23 08:09:00,45.7,36.1,29.99,NE,50,0.0,3.0,69,0.00,,---,0.00,VWS V14.01,2013-11-23 16:09:00,
2013-11-23 08:14:00,45.8,36.2,29.99,NE,50,0.0,3.0,69,0.00,,---,0.00,VWS V14.01,2013-11-23 16:14:00,
2013-11-23 08:19:00,46.4,36.4,29.99,East,82,0.0,5.0,68,0.00,,---,0.00,VWS V14.01,2013-11-23 16:19:00,
2013-11-23 08:24:00,47.3,37.3,29.99,East,82,0.0,5.0,68,0.00,,---,0.00,VWS V14.01,2013-11-23 16:24:00,
2013-11-23 08:29:00,48.2,38.2,29.99,East,82,0.0,5.0,68,0.00,,---,0.00,VWS V14.01,2013-11-23 16:29:00,
2013-11-23 08:34:00,48.9,37.7,29.99,ENE,60,0.0,6.0,65,0.00,,---,0.00,VWS V14.01,2013-11-23 16:34:00,
2013-11-23 08:39:00,49.6,36.7,29.99,ENE,61,0.0,6.0,61,0.00,,---,0.00,VWS V14.01,2013-11-23 16:39:00,
2013-11-23 08:44:00,50.4,37.9,29.99,ENE,61,0.0,6.0,62,0.00,,---,0.00,VWS V14.01,2013-11-23 16:44:00,
2013-11-23 08:49:00,50.7,38.6,29.99,ENE,61,0.0,6.0,63,0.00,,---,0.00,VWS V14.01,2013-11-23 16:49:00,
2013-11-23 08:54:00,50.8,38.7,29.99,North,11,0.0,6.0,63,0.00,,---,0.00,VWS V14.01,2013-11-23 16:54:00,
2013-11-23 08:59:00,51.0,38.5,29.99,North,11,0.0,6.0,62,0.00,,---,0.00,VWS V14.01,2013-11-23 16:59:00,
2013-11-23 09:04:00,50.2,38.5,29.99,North,11,0.0,0.0,64,0.00,,---,0.00,VWS V14.01,2013-11-23 17:04:00,
2013-11-23 09:10:00,49.6,38.7,29.99,North,11,0.0,0.0,66,0.00,,---,0.00,VWS V14.01,2013-11-23 17:10:00,
2013-11-23 09:15:00,49.5,38.2,29.99,North,11,0.0,0.0,65,0.00,,---,0.00,VWS V14.01,2013-11-23 17:15:00,
2013-11-23 09:20:00,49.6,38.3,29.99,North,11,0.0,0.0,65,0.00,,---,0.00,VWS V14.01,2013-11-23 17:20:00,
2013-11-23 09:25:00,50.1,38.8,29.99,North,355,0.0,1.0,65,0.00,,---,0.00,VWS V14.01,2013-11-23 17:25:00,
2013-11-23 09:30:00,50.4,38.7,29.99,North,355,0.0,1.0,64,0.00,,---,0.00,VWS V14.01,2013-11-23 17:30:00,
2013-11-23 09:35:00,51.1,38.5,29.99,North,355,0.0,2.0,62,0.00,,---,0.00,VWS V14.01,2013-11-23 17:35:00,
2013-11-23 09:40:00,51.6,38.6,29.99,North,355,0.0,2.0,61,0.00,,---,0.00,VWS V14.01,2013-11-23 17:40:00,
2013-11-23 09:45:00,52.0,38.6,29.99,ENE,58,2.0,4.0,60,0.00,,---,0.00,VWS V14.01,2013-11-23 17:45:00,
2013-11-23 09:50:00,52.6,38.3,30.00,NE,54,1.0,4.0,58,0.00,,---,0.00,VWS V14.01,2013-11-23 17:50:00,
2013-11-23 09:55:00,53.3,38.5,30.00,ENE,63,3.0,5.0,57,0.00,,---,0.00,VWS V14.01,2013-11-23 17:55:00,
2013-11-23 10:00:00,53.9,38.1,30.00,ENE,65,3.0,7.0,55,0.00,,---,0.00,VWS V14.01,2013-11-23 18:00:00,
2013-11-23 10:05:00,54.1,37.8,30.00,East,82,0.0,6.0,54,0.00,,---,0.00,VWS V14.01,2013-11-23 18:05:00,
2013-11-23 10:10:00,54.4,38.1,30.00,ENE,69,0.0,6.0,54,0.00,,---,0.00,VWS V14.01,2013-11-23 18:10:00,
2013-11-23 10:15:00,54.7,38.4,30.00,ENE,67,2.0,6.0,54,0.00,,---,0.00,VWS V14.01,2013-11-23 18:15:00,
2013-11-23 10:21:00,55.3,38.5,30.00,NE,55,0.0,6.0,53,0.00,,---,0.00,VWS V14.01,2013-11-23 18:21:00,
2013-11-23 10:26:00,55.9,38.5,30.00,NE,55,0.0,6.0,52,0.00,,---,0.00,VWS V14.01,2013-11-23 18:26:00,
2013-11-23 10:31:00,56.3,37.9,30.00,NE,55,0.0,6.0,50,0.00,,---,0.00,VWS V14.01,2013-11-23 18:31:00,
2013-11-23 10:36:00,56.7,38.8,30.00,North,355,0.0,5.0,51,0.00,,---,0.00,VWS V14.01,2013-11-23 18:36:00,
2013-11-23 10:41:00,57.2,39.8,30.00,NNW,344,0.0,5.0,52,0.00,,---,0.00,VWS V14.01,2013-11-23 18:41:00,
2013-11-23 10:46:00,57.5,39.5,30.00,NNW,344,0.0,5.0,51,0.00,,---,0.00,VWS V14.01,2013-11-23 18:46:00,
2013-11-23 10:51:00,57.8,39.0,30.00,NNW,344,0.0,-999.0,50,-99.99,,,0.00,weatherlink.com 1.10,2013-11-23 18:51:00,
2013-11-23 10:56:00,58.1,39.6,30.00,NNW,344,0.0,5.0,50,0.00,,---,0.00,VWS V14.01,2013-11-23 18:56:00,
2013-11-23 11:01:00,58.4,39.8,30.00,NNW,344,0.0,5.0,50,0.00,,---,0.00,VWS V14.01,2013-11-23 19:01:00,
2013-11-23 11:06:00,58.7,39.6,29.99,NNW,344,0.0,1.0,49,0.00,,---,0.00,VWS V14.01,2013-11-23 19:06:00,
2013-11-23 11:11:00,58.9,39.8,29.99,NNW,345,0.0,1.0,49,0.00,,---,0.00,VWS V14.01,2013-11-23 19:11:00,
2013-11-23 11:16:00,59.0,40.4,29.99,NNW,345,0.0,1.0,50,0.00,,---,0.00,VWS V14.01,2013-11-23 19:16:00,
2013-11-23 11:21:00,59.3,39.6,29.99,NNW,345,0.0,1.0,48,0.00,,---,0.00,VWS V14.01,2013-11-23 19:21:00,
2013-11-23 11:27:00,59.5,39.3,29.99,NNW,345,0.0,1.0,47,0.00,,---,0.00,VWS V14.01,2013-11-23 19:27:00,
2013-11-23 11:32:00,59.9,40.2,29.99,NNW,327,1.0,2.0,48,0.00,,---,0.00,VWS V14.01,2013-11-23 19:32:00,
2013-11-23 11:37:00,60.5,40.2,29.99,NW,318,0.0,2.0,47,0.00,,---,0.00,VWS V14.01,2013-11-23 19:37:00,
2013-11-23 11:42:00,61.2,39.1,29.99,NW,318,0.0,2.0,44,0.00,,---,0.00,VWS V14.01,2013-11-23 19:42:00,
2013-11-23 11:47:00,61.3,39.8,29.99,NW,319,0.0,2.0,45,0.00,,---,0.00,VWS V14.01,2013-11-23 19:47:00,
2013-11-23 11:52:00,61.5,40.5,29.99,NW,319,0.0,3.0,46,0.00,,---,0.00,VWS V14.01,2013-11-23 19:52:00,
2013-11-23 11:57:00,61.5,39.0,29.99,NW,319,0.0,-999.0,44,-99.99,,,0.00,weatherlink.com 1.10,2013-11-23 19:57:00,
2013-11-23 12:02:00,62.1,38.8,29.98,WNW,298,0.0,3.0,42,0.00,,---,0.00,VWS V14.01,2013-11-23 20:02:00,
2013-11-23 12:07:00,62.7,39.9,29.98,WNW,298,0.0,0.0,43,0.00,,---,0.00,VWS V14.01,2013-11-23 20:07:00,
2013-11-23 12:12:00,62.9,39.5,29.98,WNW,298,0.0,0.0,42,0.00,,---,0.00,VWS V14.01,2013-11-23 20:12:00,
2013-11-23 12:17:00,63.4,39.9,29.98,WNW,298,0.0,1.0,42,0.00,,---,0.00,VWS V14.01,2013-11-23 20:17:00,
2013-11-23 12:22:00,63.7,39.0,29.98,NW,307,1.0,3.0,40,0.00,,---,0.00,VWS V14.01,2013-11-23 20:22:00,
2013-11-23 12:27:00,63.9,39.8,29.98,NNW,327,0.0,3.0,41,0.00,,---,0.00,VWS V14.01,2013-11-23 20:27:00,
2013-11-23 12:32:00,63.9,39.8,29.97,NNW,327,0.0,3.0,41,0.00,,---,0.00,VWS V14.01,2013-11-23 20:32:00,
2013-11-23 12:37:00,64.2,40.0,29.97,NNW,344,0.0,4.0,41,0.00,,---,0.00,VWS V14.01,2013-11-23 20:37:00,
2013-11-23 12:43:00,64.3,41.3,29.97,NNW,344,0.0,4.0,43,0.00,,---,0.00,VWS V14.01,2013-11-23 20:43:00,
2013-11-23 12:48:00,64.7,40.5,29.97,NNW,344,0.0,4.0,41,0.00,,---,0.00,VWS V14.01,2013-11-23 20:48:00,
2013-11-23 12:53:00,65.0,41.4,29.97,NNW,329,0.0,4.0,42,0.00,,---,0.00,VWS V14.01,2013-11-23 20:53:00,
2013-11-23 12:58:00,65.3,41.6,29.97,NNW,331,0.0,4.0,42,0.00,,---,0.00,VWS V14.01,2013-11-23 20:58:00,
2013-11-23 13:03:00,65.6,41.3,29.96,WNW,282,0.0,0.0,41,0.00,,---,0.00,VWS V14.01,2013-11-23 21:03:00,
2013-11-23 13:08:00,66.1,42.4,29.96,West,267,0.0,5.0,42,0.00,,---,0.00,VWS V14.01,2013-11-23 21:08:00,
2013-11-23 13:13:00,66.1,42.4,29.96,WNW,285,0.0,5.0,42,0.00,,---,0.00,VWS V14.01,2013-11-23 21:13:00,
2013-11-23 13:18:00,66.3,43.8,29.96,West,280,0.0,5.0,44,0.00,,---,0.00,VWS V14.01,2013-11-23 21:18:00,
2013-11-23 13:23:00,66.4,45.6,29.96,West,276,0.0,6.0,47,0.00,,---,0.00,VWS V14.01,2013-11-23 21:23:00,
2013-11-23 13:28:00,66.4,46.1,29.96,West,273,0.0,6.0,48,0.00,,---,0.00,VWS V14.01,2013-11-23 21:28:00,
2013-11-23 13:33:00,66.6,46.3,29.96,WSW,256,0.0,1.0,48,0.00,,---,0.00,VWS V14.01,2013-11-23 21:33:00,
2013-11-23 13:38:00,66.6,46.9,29.96,WSW,242,2.0,4.0,49,0.00,,---,0.00,VWS V14.01,2013-11-23 21:38:00,
2013-11-23 13:43:00,66.3,47.1,29.96,WNW,300,0.0,8.0,50,0.00,,---,0.00,VWS V14.01,2013-11-23 21:43:00,
2013-11-23 13:48:00,65.8,46.7,29.96,WNW,292,0.0,8.0,50,0.00,,---,0.00,VWS V14.01,2013-11-23 21:48:00,
2013-11-23 13:53:00,65.6,46.5,29.96,WNW,287,0.0,8.0,50,0.00,,---,0.00,VWS V14.01,2013-11-23 21:53:00,
2013-11-23 13:59:00,65.5,46.9,29.96,NW,314,0.0,8.0,51,0.00,,---,0.00,VWS V14.01,2013-11-23 21:59:00,
2013-11-23 14:04:00,65.3,46.7,29.96,West,275,0.0,4.0,51,0.00,,---,0.00,VWS V14.01,2013-11-23 22:04:00,
2013-11-23 14:09:00,65.2,46.0,29.96,WSW,256,0.0,-999.0,51,-99.99,,,0.00,weatherlink.com 1.10,2013-11-23 22:09:00,
2013-11-23 14:14:00,65.0,46.5,29.96,WSW,252,1.0,5.0,51,0.00,,---,0.00,VWS V14.01,2013-11-23 22:14:00,
2013-11-23 14:19:00,64.7,46.2,29.96,NW,323,0.0,5.0,51,0.00,,---,0.00,VWS V14.01,2013-11-23 22:19:00,
2013-11-23 14:24:00,64.7,47.2,29.96,WNW,300,1.0,6.0,53,0.00,,---,0.00,VWS V14.01,2013-11-23 22:24:00,
2013-11-23 14:29:00,64.8,47.3,29.96,West,271,0.0,6.0,53,0.00,,---,0.00,VWS V14.01,2013-11-23 22:29:00,
2013-11-23 14:34:00,65.0,47.0,29.97,WNW,290,4.0,4.0,52,0.00,,---,0.00,VWS V14.01,2013-11-23 22:34:00,
2013-11-23 14:39:00,65.0,47.0,29.97,West,259,0.0,7.0,52,0.00,,---,0.00,VWS V14.01,2013-11-23 22:39:00,
2013-11-23 14:44:00,64.8,47.3,29.97,NW,314,0.0,7.0,53,0.00,,---,0.00,VWS V14.01,2013-11-23 22:44:00,
2013-11-23 14:49:00,64.7,48.2,29.97,WSW,252,3.0,7.0,55,0.00,,---,0.00,VWS V14.01,2013-11-23 22:49:00,
2013-11-23 14:54:00,64.3,47.3,29.97,West,260,0.0,7.0,54,0.00,,---,0.00,VWS V14.01,2013-11-23 22:54:00,
2013-11-23 14:59:00,64.0,47.5,29.97,WNW,282,0.0,7.0,55,0.00,,---,0.00,VWS V14.01,2013-11-23 22:59:00,
2013-11-23 15:04:00,64.0,48.0,29.97,WSW,258,0.0,3.0,56,0.00,,---,0.00,VWS V14.01,2013-11-23 23:04:00,
2013-11-23 15:09:00,63.9,47.9,29.97,WNW,285,2.0,5.0,56,0.00,,---,0.00,VWS V14.01,2013-11-23 23:09:00,
2013-11-23 15:14:00,63.9,47.9,29.97,WNW,286,3.0,5.0,56,0.00,,---,0.00,VWS V14.01,2013-11-23 23:14:00,
2013-11-23 15:20:00,63.7,47.7,29.97,WNW,284,0.0,6.0,56,0.00,,---,0.00,VWS V14.01,2013-11-23 23:20:00,
2013-11-23 15:25:00,63.4,47.9,29.97,SW,234,0.0,6.0,57,0.00,,---,0.00,VWS V14.01,2013-11-23 23:25:00,
2013-11-23 15:30:00,62.9,47.9,29.97,NW,311,4.0,6.0,58,0.00,,---,0.00,VWS V14.01,2013-11-23 23:30:00,
2013-11-23 15:35:00,62.7,47.7,29.97,West,269,0.0,0.0,58,0.00,,---,0.00,VWS V14.01,2013-11-23 23:35:00,
2013-11-23 15:40:00,62.6,48.1,29.97,WNW,296,0.0,1.0,59,0.00,,---,0.00,VWS V14.01,2013-11-23 23:40:00,
2013-11-23 15:45:00,62.4,48.3,29.97,West,259,3.0,3.0,60,0.00,,---,0.00,VWS V14.01,2013-11-23 23:45:00,
2013-11-23 15:50:00,62.0,48.8,29.97,WSW,240,0.0,5.0,62,0.00,,---,0.00,VWS V14.01,2013-11-23 23:50:00,
2013-11-23 15:55:00,60.9,49.1,29.97,WNW,300,0.0,5.0,65,0.00,,---,0.00,VWS V14.01,2013-11-23 23:55:00,
2013-11-23 16:00:00,60.1,49.1,29.97,WSW,257,1.0,6.0,67,0.00,,---,0.00,VWS V14.01,2013-11-24 00:00:00,
2013-11-23 16:05:00,59.3,49.5,29.98,WSW,246,0.0,5.0,70,0.00,,---,0.00,VWS V14.01,2013-11-24 00:05:00,
2013-11-23 16:10:00,58.7,50.1,29.98,WSW,242,0.0,7.0,73,0.00,,---,0.00,VWS V14.01,2013-11-24 00:10:00,
2013-11-23 16:15:00,58.3,50.4,29.98,West,275,0.0,7.0,75,0.00,,---,0.00,VWS V14.01,2013-11-24 00:15:00,
2013-11-23 16:20:00,57.8,50.7,29.99,WSW,238,2.0,7.0,77,0.00,,---,0.00,VWS V14.01,2013-11-24 00:20:00,
2013-11-23 16:25:00,57.5,50.7,29.99,West,273,0.0,7.0,78,0.00,,---,0.00,VWS V14.01,2013-11-24 00:25:00,
2013-11-23 16:31:00,57.2,50.8,29.99,WNW,300,0.0,7.0,79,0.00,,---,0.00,VWS V14.01,2013-11-24 00:31:00,
2013-11-23 16:36:00,57.0,50.9,29.99,WSW,250,0.0,4.0,80,0.00,,---,0.00,VWS V14.01,2013-11-24 00:36:00,
2013-11-23 16:41:00,56.7,50.9,29.99,WSW,252,0.0,6.0,81,0.00,,---,0.00,VWS V14.01,2013-11-24 00:41:00,
2013-11-23 16:46:00,56.5,50.8,29.99,WSW,257,0.0,6.0,81,0.00,,---,0.00,VWS V14.01,2013-11-24 00:46:00,
2013-11-23 16:51:00,56.2,50.8,29.99,WSW,242,4.0,7.0,82,0.00,,---,0.00,VWS V14.01,2013-11-24 00:51:00,
2013-11-23 16:56:00,55.9,50.8,29.99,WSW,240,3.0,7.0,83,0.00,,---,0.00,VWS V14.01,2013-11-24 00:56:00,
2013-11-23 17:01:00,55.7,50.6,29.99,WSW,244,0.0,7.0,83,0.00,,---,0.00,VWS V14.01,2013-11-24 01:01:00,
2013-11-23 17:06:00,55.6,50.8,29.99,West,271,0.0,0.0,84,0.00,,---,0.00,VWS V14.01,2013-11-24 01:06:00,
2013-11-23 17:11:00,55.3,50.9,29.99,West,271,0.0,0.0,85,0.00,,---,0.00,VWS V14.01,2013-11-24 01:11:00,
2013-11-23 17:16:00,55.1,50.7,29.99,West,269,0.0,0.0,85,0.00,,---,0.00,VWS V14.01,2013-11-24 01:16:00,
2013-11-23 17:21:00,55.0,50.6,29.99,WSW,240,0.0,4.0,85,0.00,,---,0.00,VWS V14.01,2013-11-24 01:21:00,
2013-11-23 17:26:00,54.8,50.7,29.99,SW,235,0.0,4.0,86,0.00,,---,0.00,VWS V14.01,2013-11-24 01:26:00,
2013-11-23 17:32:00,54.7,50.6,29.99,WSW,244,0.0,4.0,86,0.00,,---,0.00,VWS V14.01,2013-11-24 01:32:00,
2013-11-23 17:37:00,54.7,50.6,30.00,WSW,244,0.0,1.0,86,0.00,,---,0.00,VWS V14.01,2013-11-24 01:37:00,
2013-11-23 17:42:00,54.7,50.6,30.00,SW,234,0.0,4.0,86,0.00,,---,0.00,VWS V14.01,2013-11-24 01:42:00,
2013-11-23 17:47:00,54.5,50.4,30.00,WSW,246,0.0,4.0,86,0.00,,---,0.00,VWS V14.01,2013-11-24 01:47:00,
2013-11-23 17:52:00,54.5,50.7,30.00,WSW,254,3.0,6.0,87,0.00,,---,0.00,VWS V14.01,2013-11-24 01:52:00,
2013-11-23 17:57:00,54.5,50.4,30.00,WSW,256,2.0,6.0,86,0.00,,---,0.00,VWS V14.01,2013-11-24 01:57:00,
2013-11-23 18:02:00,54.5,50.7,30.00,WSW,251,0.0,6.0,87,0.00,,---,0.00,VWS V14.01,2013-11-24 02:02:00,
2013-11-23 18:07:00,54.5,50.7,30.00,WSW,248,1.0,1.0,87,0.00,,---,0.00,VWS V14.01,2013-11-24 02:07:00,
2013-11-23 18:12:00,54.4,50.6,30.00,SW,232,3.0,3.0,87,0.00,,---,0.00,VWS V14.01,2013-11-24 02:12:00,
2013-11-23 18:17:00,54.5,50.7,30.00,West,259,5.0,5.0,87,0.00,,---,0.00,VWS V14.01,2013-11-24 02:17:00,
2013-11-23 18:22:00,54.5,50.7,30.00,West,263,3.0,6.0,87,0.00,,---,0.00,VWS V14.01,2013-11-24 02:22:00,
2013-11-23 18:27:00,54.5,50.7,30.00,WSW,252,0.0,6.0,87,0.00,,---,0.00,VWS V14.01,2013-11-24 02:27:00,
2013-11-23 18:32:00,54.4,50.6,30.00,WSW,252,0.0,6.0,87,0.00,,---,0.00,VWS V14.01,2013-11-24 02:32:00,
2013-11-23 18:37:00,54.2,50.4,30.00,WSW,252,0.0,0.0,87,0.00,,---,0.00,VWS V14.01,2013-11-24 02:37:00,
2013-11-23 18:42:00,53.9,50.1,30.00,WSW,252,0.0,0.0,87,0.00,,---,0.00,VWS V14.01,2013-11-24 02:42:00,
2013-11-23 18:48:00,53.5,49.7,30.01,WSW,252,0.0,0.0,87,0.00,,---,0.00,VWS V14.01,2013-11-24 02:48:00,
2013-11-23 18:53:00,52.9,49.5,30.01,WSW,252,0.0,0.0,88,0.00,,---,0.00,VWS V14.01,2013-11-24 02:53:00,
2013-11-23 18:58:00,52.8,49.7,30.01,WSW,244,0.0,0.0,89,0.00,,---,0.00,VWS V14.01,2013-11-24 02:58:00,
2013-11-23 19:03:00,52.8,49.7,30.02,WSW,243,0.0,0.0,89,0.00,,---,0.00,VWS V14.01,2013-11-24 03:03:00,
2013-11-23 19:08:00,52.6,49.5,30.02,WSW,243,0.0,0.0,89,0.00,,---,0.00,VWS V14.01,2013-11-24 03:08:00,
2013-11-23 19:13:00,52.5,49.4,30.02,WSW,243,0.0,0.0,89,0.00,,---,0.00,VWS V14.01,2013-11-24 03:13:00,
2013-11-23 19:18:00,52.5,49.4,30.02,WSW,240,0.0,0.0,89,0.00,,---,0.00,VWS V14.01,2013-11-24 03:18:00,
2013-11-23 19:23:00,52.3,49.2,30.02,WSW,240,0.0,0.0,89,0.00,,---,0.00,VWS V14.01,2013-11-24 03:23:00,
2013-11-23 19:28:00,52.3,48.9,30.02,WSW,240,0.0,3.0,88,0.00,,---,0.00,VWS V14.01,2013-11-24 03:28:00,
2013-11-23 19:33:00,52.2,48.8,30.02,WSW,240,0.0,0.0,88,0.00,,---,0.00,VWS V14.01,2013-11-24 03:33:00,
2013-11-23 19:38:00,52.2,48.5,30.02,WSW,240,0.0,0.0,87,0.00,,---,0.00,VWS V14.01,2013-11-24 03:38:00,
2013-11-23 19:43:00,52.3,48.5,30.02,WSW,240,0.0,3.0,87,0.00,,---,0.00,VWS V14.01,2013-11-24 03:43:00,
2013-11-23 19:48:00,52.3,48.2,30.03,WSW,240,0.0,3.0,86,0.00,,---,0.00,VWS V14.01,2013-11-24 03:48:00,
2013-11-23 19:54:00,52.2,48.2,30.03,WSW,240,1.0,3.0,86,0.00,,---,0.00,VWS V14.01,2013-11-24 03:54:00,
2013-11-23 19:59:00,52.2,48.2,30.03,WSW,240,0.0,4.0,86,0.00,,---,0.00,VWS V14.01,2013-11-24 03:59:00,
2013-11-23 20:04:00,52.0,47.6,30.04,WSW,239,0.0,0.0,85,0.00,,---,0.00,VWS V14.01,2013-11-24 04:04:00,
2013-11-23 20:09:00,52.2,47.5,30.04,WSW,239,0.0,0.0,84,0.00,,---,0.00,VWS V14.01,2013-11-24 04:09:00,
2013-11-23 20:14:00,52.2,47.5,30.04,SW,236,0.0,3.0,84,0.00,,---,0.00,VWS V14.01,2013-11-24 04:14:00,
2013-11-23 20:19:00,52.2,47.2,30.04,SW,235,0.0,3.0,83,0.00,,---,0.00,VWS V14.01,2013-11-24 04:19:00,
2013-11-23 20:24:00,52.2,47.2,30.04,SW,235,0.0,3.0,83,0.00,,---,0.00,VWS V14.01,2013-11-24 04:24:00,
2013-11-23 20:29:00,52.2,47.2,30.04,SW,235,0.0,3.0,83,0.00,,---,0.00,VWS V14.01,2013-11-24 04:29:00,
2013-11-23 20:34:00,52.2,47.2,30.05,SW,234,0.0,0.0,83,0.00,,---,0.00,VWS V14.01,2013-11-24 04:34:00,
2013-11-23 20:39:00,52.2,47.2,30.05,SW,234,0.0,0.0,83,0.00,,---,0.00,VWS V14.01,2013-11-24 04:39:00,
2013-11-23 20:44:00,52.2,47.2,30.05,SW,234,0.0,1.0,83,0.00,,---,0.00,VWS V14.01,2013-11-24 04:44:00,
2013-11-23 20:49:00,52.2,46.9,30.05,SW,234,0.0,1.0,82,0.00,,---,0.00,VWS V14.01,2013-11-24 04:49:00,
2013-11-23 20:54:00,52.0,46.4,30.05,SW,234,0.0,2.0,81,0.00,,---,0.00,VWS V14.01,2013-11-24 04:54:00,
2013-11-23 20:59:00,51.9,46.3,30.05,SW,234,0.0,2.0,81,0.00,,---,0.00,VWS V14.01,2013-11-24 04:59:00,
2013-11-23 21:01:00,51.9,46.3,30.05,SW,234,0.0,2.0,81,0.00,,---,0.00,VWS V14.01,2013-11-24 05:01:00,
2013-11-23 21:02:00,51.9,45.9,30.05,SW,234,0.0,2.0,80,0.00,,---,0.00,VWS V14.01,2013-11-24 05:02:00,
2013-11-23 21:07:00,51.7,45.7,30.05,SW,234,0.0,0.0,80,0.00,,---,0.00,VWS V14.01,2013-11-24 05:07:00,
2013-11-23 21:12:00,51.3,45.3,30.05,SW,234,0.0,0.0,80,0.00,,---,0.00,VWS V14.01,2013-11-24 05:12:00,
2013-11-23 21:17:00,50.8,45.2,30.05,SW,234,0.0,0.0,81,0.00,,---,0.00,VWS V14.01,2013-11-24 05:17:00,
2013-11-23 21:22:00,50.5,45.2,30.05,SW,234,0.0,0.0,82,0.00,,---,0.00,VWS V14.01,2013-11-24 05:22:00,
2013-11-23 21:28:00,50.1,45.2,30.05,SW,234,0.0,0.0,83,0.00,,---,0.00,VWS V14.01,2013-11-24 05:28:00,
2013-11-23 21:33:00,49.8,44.8,30.05,SW,234,0.0,0.0,83,0.00,,---,0.00,VWS V14.01,2013-11-24 05:33:00,
2013-11-23 21:38:00,49.4,44.8,30.05,SW,234,0.0,0.0,84,0.00,,---,0.00,VWS V14.01,2013-11-24 05:38:00,
2013-11-23 21:43:00,48.9,44.6,30.05,SW,234,0.0,0.0,85,0.00,,---,0.00,VWS V14.01,2013-11-24 05:43:00,
2013-11-23 21:48:00,48.6,44.3,30.05,SW,234,0.0,0.0,85,0.00,,---,0.00,VWS V14.01,2013-11-24 05:48:00,
2013-11-23 21:53:00,48.3,44.3,30.05,SW,234,0.0,0.0,86,0.00,,---,0.00,VWS V14.01,2013-11-24 05:53:00,
2013-11-23 21:57:00,48.2,44.2,30.05,SW,234,0.0,0.0,86,0.00,,---,0.00,VWS V14.01,2013-11-24 05:57:00,
2013-11-23 22:02:00,48.0,44.0,30.05,SW,234,0.0,0.0,86,0.00,,---,0.00,VWS V14.01,2013-11-24 06:02:00,
2013-11-23 22:07:00,47.9,44.2,30.05,SW,234,0.0,0.0,87,0.00,,---,0.00,VWS V14.01,2013-11-24 06:07:00,
2013-11-23 22:12:00,47.7,44.3,30.05,SW,234,0.0,0.0,88,0.00,,---,0.00,VWS V14.01,2013-11-24 06:12:00,
2013-11-23 22:17:00,47.7,44.3,30.06,SW,234,0.0,0.0,88,0.00,,---,0.00,VWS V14.01,2013-11-24 06:17:00,
2013-11-23 22:22:00,47.4,44.0,30.06,SW,234,0.0,0.0,88,0.00,,---,0.00,VWS V14.01,2013-11-24 06:22:00,
2013-11-23 22:27:00,47.1,43.7,30.06,SW,234,0.0,0.0,88,0.00,,---,0.00,VWS V14.01,2013-11-24 06:27:00,
2013-11-23 22:32:00,47.0,43.6,30.06,SW,234,0.0,0.0,88,0.00,,---,0.00,VWS V14.01,2013-11-24 06:32:00,
2013-11-23 22:37:00,46.8,43.7,30.06,SW,234,0.0,0.0,89,0.00,,---,0.00,VWS V14.01,2013-11-24 06:37:00,
2013-11-23 22:42:00,46.8,44.0,30.06,SW,234,0.0,0.0,90,0.00,,---,0.00,VWS V14.01,2013-11-24 06:42:00,
2013-11-23 22:48:00,46.8,43.7,30.06,SW,234,0.0,0.0,89,0.00,,---,0.00,VWS V14.01,2013-11-24 06:48:00,
2013-11-23 22:53:00,46.5,43.7,30.06,SW,234,0.0,0.0,90,0.00,,---,0.00,VWS V14.01,2013-11-24 06:53:00,
2013-11-23 22:58:00,46.4,43.6,30.06,SW,234,0.0,0.0,90,0.00,,---,0.00,VWS V14.01,2013-11-24 06:58:00,
2013-11-23 23:03:00,46.5,44.0,30.07,SW,234,0.0,0.0,91,0.00,,---,0.00,VWS V14.01,2013-11-24 07:03:00,
2013-11-23 23:08:00,46.5,44.0,30.07,SW,234,0.0,0.0,91,0.00,,---,0.00,VWS V14.01,2013-11-24 07:08:00,
2013-11-23 23:13:00,46.2,43.7,30.07,SW,234,0.0,0.0,91,0.00,,---,0.00,VWS V14.01,2013-11-24 07:13:00,
2013-11-23 23:18:00,46.1,43.6,30.07,SW,234,0.0,0.0,91,0.00,,---,0.00,VWS V14.01,2013-11-24 07:18:00,
2013-11-23 23:23:00,46.0,43.5,30.07,SW,234,0.0,0.0,91,0.00,,---,0.00,VWS V14.01,2013-11-24 07:23:00,
2013-11-23 23:28:00,45.8,43.3,30.07,SW,234,0.0,0.0,91,0.00,,---,0.00,VWS V14.01,2013-11-24 07:28:00,
2013-11-23 23:33:00,45.7,43.5,30.07,SW,234,0.0,0.0,92,0.00,,---,0.00,VWS V14.01,2013-11-24 07:33:00,
2013-11-23 23:38:00,45.5,43.3,30.07,SW,234,0.0,0.0,92,0.00,,---,0.00,VWS V14.01,2013-11-24 07:38:00,
2013-11-23 23:43:00,45.5,43.3,30.07,SW,234,0.0,0.0,92,0.00,,---,0.00,VWS V14.01,2013-11-24 07:43:00,
2013-11-23 23:48:00,45.4,43.2,30.07,SW,234,0.0,0.0,92,0.00,,---,0.00,VWS V14.01,2013-11-24 07:48:00,
2013-11-23 23:54:00,45.5,43.3,30.07,SW,234,0.0,0.0,92,0.00,,---,0.00,VWS V14.01,2013-11-24 07:54:00,
2013-11-23 23:59:00,45.7,43.5,30.07,SW,234,0.0,0.0,92,0.00,,---,0.00,VWS V14.01,2013-11-24 07:59:00,